Time;durP1;ratioP1;P1;durP2;ratioP2;P2;SDS_P1;SDS_P2;PMS_P1;PMS_P2;Temp;Humidity;BMP_temperature;BMP_pressure;BME280_temperature;BME280_humidity;BME280_pressure;Samples;Min_cycle;Max_cycle;Signal;HPM_P1;HPM_P2
2021/08/02 00:00:14;;;;;;;7.83;7.13;;;17.40;99.90;;;;;;4938694;29;20410;-69
2021/08/02 00:03:13;;;;;;;7.27;6.67;;;17.50;99.90;;;;;;4939211;29;20968;-69
2021/08/02 00:05:44;;;;;;;6.90;6.30;;;17.40;99.90;;;;;;4937426;29;20454;-68
2021/08/02 00:08:13;;;;;;;8.07;7.33;;;17.30;99.90;;;;;;4938553;29;20441;-69
2021/08/02 00:10:39;;;;;;;8.63;7.47;;;17.30;99.90;;;;;;4938323;29;20743;-69
2021/08/02 00:13:09;;;;;;;8.80;8.00;;;17.30;99.90;;;;;;4938465;29;20446;-69
2021/08/02 00:15:36;;;;;;;7.20;6.60;;;17.20;99.90;;;;;;4938203;29;20530;-69
2021/08/02 00:18:02;;;;;;;7.70;7.00;;;17.20;99.90;;;;;;4938117;29;20880;-69
2021/08/02 00:20:32;;;;;;;8.17;6.90;;;17.20;99.90;;;;;;4937939;29;20790;-70
2021/08/02 00:23:05;;;;;;;8.40;7.70;;;17.30;99.90;;;;;;4938155;29;20457;-70
2021/08/02 00:25:31;;;;;;;8.57;7.77;;;17.30;99.90;;;;;;4938100;29;20422;-70
2021/08/02 00:27:57;;;;;;;7.30;6.67;;;17.30;99.90;;;;;;4938122;29;20414;-70
2021/08/02 00:30:26;;;;;;;8.50;6.43;;;17.20;99.90;;;;;;4937925;29;20413;-70
2021/08/02 00:32:53;;;;;;;8.27;6.77;;;17.20;99.90;;;;;;4937722;29;20230;-70
2021/08/02 00:35:19;;;;;;;5.93;5.27;;;17.30;99.90;;;;;;4937970;29;20418;-69
2021/08/02 00:38:00;;;;;;;7.50;6.37;;;17.20;99.90;;;;;;4938274;29;20433;-70
2021/08/02 00:40:46;;;;;;;6.30;5.70;;;17.20;99.90;;;;;;4938135;29;20471;-70
2021/08/02 00:43:33;;;;;;;7.23;6.50;;;17.20;99.90;;;;;;4937886;29;20896;-69
2021/08/02 00:46:00;;;;;;;7.90;7.20;;;17.30;99.90;;;;;;4937409;29;20741;-70
2021/08/02 00:48:28;;;;;;;9.80;8.80;;;17.30;99.90;;;;;;4937413;29;20402;-69
2021/08/02 00:50:59;;;;;;;11.93;8.70;;;17.40;99.90;;;;;;4938209;29;20414;-70
2021/08/02 00:53:26;;;;;;;11.50;10.30;;;17.30;99.90;;;;;;4938004;29;20442;-70
2021/08/02 00:55:58;;;;;;;11.27;9.10;;;17.20;99.90;;;;;;4937846;29;20414;-70
2021/08/02 00:58:26;;;;;;;12.00;10.80;;;17.10;99.90;;;;;;4937306;29;20425;-69
2021/08/02 01:00:52;;;;;;;12.20;10.47;;;16.80;99.90;;;;;;4939976;29;20410;-69
2021/08/02 01:03:19;;;;;;;10.60;9.50;;;16.70;99.90;;;;;;4941630;29;20454;-69
2021/08/02 01:05:49;;;;;;;11.40;10.20;;;16.70;99.90;;;;;;4940433;29;20426;-69
2021/08/02 01:08:24;;;;;;;10.70;9.70;;;16.80;99.90;;;;;;4940466;29;20433;-69
2021/08/02 01:10:53;;;;;;;14.37;9.83;;;16.90;99.90;;;;;;4938183;29;20449;-69
2021/08/02 01:13:21;;;;;;;12.57;10.03;;;16.90;99.90;;;;;;4937156;29;20481;-70
2021/08/02 01:15:48;;;;;;;11.23;9.17;;;16.90;99.90;;;;;;4939607;29;20521;-69
2021/08/02 01:18:17;;;;;;;11.13;9.80;;;16.90;99.90;;;;;;4939567;29;20421;-69
2021/08/02 01:20:46;;;;;;;10.10;8.40;;;17.00;99.90;;;;;;4939482;29;20461;-69
2021/08/02 01:23:14;;;;;;;11.20;9.00;;;17.10;99.90;;;;;;4937276;29;20434;-70
2021/08/02 01:25:40;;;;;;;9.03;8.13;;;17.10;99.90;;;;;;4937096;29;20414;-69
2021/08/02 01:28:14;;;;;;;10.40;8.77;;;17.00;99.90;;;;;;4936856;29;20451;-69
2021/08/02 01:30:46;;;;;;;10.50;9.48;;;17.00;99.90;;;;;;4937171;29;20482;-70
2021/08/02 01:33:13;;;;;;;10.60;8.87;;;17.10;99.90;;;;;;4936900;29;20198;-69
2021/08/02 01:35:40;;;;;;;9.50;8.50;;;17.10;99.90;;;;;;4937106;29;20735;-70
2021/08/02 01:38:05;;;;;;;9.73;7.53;;;17.20;99.90;;;;;;4937398;29;20419;-70
2021/08/02 01:40:32;;;;;;;9.67;7.70;;;17.20;99.90;;;;;;4937367;29;20803;-69
2021/08/02 01:43:02;;;;;;;9.30;8.40;;;17.20;99.90;;;;;;4937991;29;20213;-70
2021/08/02 01:45:28;;;;;;;11.10;8.37;;;17.20;99.90;;;;;;4945586;29;20440;-70
2021/08/02 01:48:10;;;;;;;10.73;8.20;;;17.10;99.90;;;;;;4936696;29;20811;-70
2021/08/02 01:50:57;;;;;;;8.50;7.57;;;17.00;99.90;;;;;;4936949;29;20167;-69
2021/08/02 01:53:35;;;;;;;7.37;6.67;;;16.90;99.90;;;;;;4937220;29;20915;-69
2021/08/02 01:56:19;;;;;;;10.33;7.00;;;16.90;99.90;;;;;;4936231;29;20382;-70
2021/08/02 01:58:53;;;;;;;5.80;5.10;;;16.80;99.90;;;;;;4936644;29;20787;-69
2021/08/02 02:01:23;;;;;;;6.93;4.10;;;16.70;99.90;;;;;;4936741;29;20769;-69
2021/08/02 02:03:50;;;;;;;7.20;4.40;;;16.60;99.90;;;;;;4935947;29;20454;-70
2021/08/02 02:06:16;;;;;;;8.07;4.50;;;16.50;99.90;;;;;;4936757;29;20414;-69
2021/08/02 02:09:03;;;;;;;5.37;3.57;;;16.40;99.90;;;;;;4938560;29;20502;-69
2021/08/02 02:11:30;;;;;;;5.10;4.20;;;16.50;99.90;;;;;;4938699;29;20938;-70
2021/08/02 02:14:00;;;;;;;4.90;4.13;;;16.60;99.90;;;;;;4936968;29;20707;-70
2021/08/02 02:16:27;;;;;;;3.87;3.10;;;16.60;99.90;;;;;;4937119;29;20414;-70
2021/08/02 02:18:55;;;;;;;4.70;3.30;;;16.70;99.90;;;;;;4936939;29;20424;-70
2021/08/02 02:21:25;;;;;;;4.30;3.07;;;16.70;99.90;;;;;;4939976;29;20402;-70
2021/08/02 02:23:51;;;;;;;5.13;3.20;;;16.70;99.90;;;;;;4940426;29;20465;-70
2021/08/02 02:26:17;;;;;;;5.47;3.10;;;16.60;99.90;;;;;;4939819;29;20477;-70
2021/08/02 02:28:43;;;;;;;3.70;3.40;;;16.60;99.90;;;;;;4941566;29;20406;-69
2021/08/02 02:31:10;;;;;;;3.47;3.03;;;16.50;99.90;;;;;;4943374;29;20533;-69
2021/08/02 02:33:36;;;;;;;6.80;3.20;;;16.60;99.90;;;;;;4943940;29;20442;-69
2021/08/02 02:36:03;;;;;;;7.80;4.07;;;16.60;99.90;;;;;;4942250;29;20414;-69
2021/08/02 02:38:30;;;;;;;4.43;3.53;;;16.50;99.90;;;;;;4941268;29;20648;-69
2021/08/02 02:40:57;;;;;;;4.97;3.17;;;16.50;99.90;;;;;;4942455;29;20483;-69
2021/08/02 02:43:23;;;;;;;5.30;2.90;;;16.60;99.90;;;;;;4942884;29;20932;-69
2021/08/02 02:45:50;;;;;;;6.85;4.10;;;16.70;99.90;;;;;;4941516;29;20417;-69
2021/08/02 02:48:17;;;;;;;5.57;3.80;;;16.60;99.90;;;;;;4940602;29;20181;-69
2021/08/02 02:50:45;;;;;;;5.67;3.60;;;16.50;99.90;;;;;;4939775;29;20426;-69
2021/08/02 02:53:11;;;;;;;4.50;3.77;;;16.50;99.90;;;;;;4939950;29;20433;-69
2021/08/02 02:55:38;;;;;;;4.50;3.60;;;16.40;99.90;;;;;;4939792;29;20424;-69
2021/08/02 02:58:04;;;;;;;5.47;3.90;;;16.30;99.90;;;;;;4939640;29;20444;-69
2021/08/02 03:00:31;;;;;;;6.03;4.00;;;16.20;99.90;;;;;;4939673;29;20421;-69
2021/08/02 03:02:58;;;;;;;4.40;3.70;;;16.20;99.90;;;;;;4938378;29;20293;-69
2021/08/02 03:05:26;;;;;;;6.30;4.10;;;16.20;99.90;;;;;;4938923;29;20445;-69
2021/08/02 03:07:57;;;;;;;6.50;4.20;;;16.20;99.90;;;;;;4939737;29;20402;-69
2021/08/02 03:10:25;;;;;;;4.30;3.70;;;16.20;99.90;;;;;;4939252;29;20395;-69
2021/08/02 03:12:51;;;;;;;5.93;4.37;;;16.20;99.90;;;;;;4939216;29;20445;-69
2021/08/02 03:15:17;;;;;;;7.28;4.70;;;16.10;99.90;;;;;;4937996;29;20432;-69
2021/08/02 03:17:42;;;;;;;8.30;4.47;;;16.10;99.90;;;;;;4938936;29;20739;-69
2021/08/02 03:20:08;;;;;;;6.00;4.03;;;16.00;99.90;;;;;;4939345;29;20812;-69
2021/08/02 03:22:50;;;;;;;4.33;3.80;;;15.90;99.90;;;;;;4939078;29;20197;-69
2021/08/02 03:25:25;;;;;;;4.53;3.60;;;16.00;99.90;;;;;;4938752;29;21086;-70
2021/08/02 03:28:05;;;;;;;7.70;3.90;;;16.00;99.90;;;;;;4938862;29;20417;-70
2021/08/02 03:30:36;;;;;;;6.30;4.07;;;16.00;99.90;;;;;;4938598;29;20406;-69
2021/08/02 03:33:05;;;;;;;7.60;3.20;;;16.10;99.90;;;;;;4938966;29;20442;-69
2021/08/02 03:35:33;;;;;;;4.23;3.83;;;16.20;99.90;;;;;;4938513;29;20469;-70
2021/08/02 03:38:01;;;;;;;6.73;3.40;;;16.30;99.90;;;;;;4938630;29;20981;-69
2021/08/02 03:40:27;;;;;;;4.23;3.70;;;16.40;99.90;;;;;;4938708;29;20477;-69
2021/08/02 03:42:53;;;;;;;7.43;4.47;;;16.40;99.90;;;;;;4938706;29;20441;-70
2021/08/02 03:45:19;;;;;;;4.73;4.00;;;16.30;99.90;;;;;;4938115;29;20462;-70
2021/08/02 03:47:46;;;;;;;6.20;4.23;;;16.30;99.90;;;;;;4939063;29;21268;-69
2021/08/02 03:50:12;;;;;;;6.97;5.33;;;16.30;99.90;;;;;;4938705;29;20798;-69
2021/08/02 03:52:39;;;;;;;7.13;3.77;;;16.20;99.90;;;;;;4938630;29;20434;-69
2021/08/02 03:55:09;;;;;;;5.80;3.50;;;16.20;99.90;;;;;;4937863;29;20422;-69
2021/08/02 03:57:35;;;;;;;5.30;3.53;;;16.30;99.90;;;;;;4938402;29;20445;-71
2021/08/02 04:00:01;;;;;;;6.47;3.80;;;16.40;99.90;;;;;;4938017;29;20445;-70
2021/08/02 04:02:26;;;;;;;5.90;4.27;;;16.40;99.90;;;;;;4938631;29;20277;-70
2021/08/02 04:04:52;;;;;;;3.53;3.23;;;16.50;99.90;;;;;;4937980;29;20201;-70
2021/08/02 04:07:17;;;;;;;4.93;3.43;;;16.60;99.90;;;;;;4938369;29;20173;-70
2021/08/02 04:09:43;;;;;;;5.13;3.60;;;16.60;99.90;;;;;;4938317;29;20174;-70
2021/08/02 04:12:09;;;;;;;6.17;3.47;;;16.60;99.90;;;;;;4937968;29;20660;-71
2021/08/02 04:14:36;;;;;;;5.20;3.40;;;16.70;99.90;;;;;;4937599;29;20282;-69
2021/08/02 04:17:02;;;;;;;6.30;3.80;;;16.60;99.90;;;;;;4938358;29;20406;-70
2021/08/02 04:19:27;;;;;;;3.40;3.10;;;16.60;99.90;;;;;;4938332;29;20438;-70
2021/08/02 04:21:55;;;;;;;6.70;4.50;;;16.50;99.90;;;;;;4938460;29;20565;-69
2021/08/02 04:24:21;;;;;;;8.47;3.20;;;16.50;99.90;;;;;;4937797;29;20249;-71
2021/08/02 04:26:46;;;;;;;5.70;3.80;;;16.60;99.90;;;;;;4937849;29;20493;-70
2021/08/02 04:29:12;;;;;;;4.33;3.00;;;16.60;99.90;;;;;;4938617;29;20174;-70
2021/08/02 04:31:37;;;;;;;5.73;2.70;;;16.70;99.90;;;;;;4939628;29;20531;-70
2021/08/02 04:34:03;;;;;;;6.93;3.40;;;16.70;99.90;;;;;;4937452;29;20210;-70
2021/08/02 04:36:29;;;;;;;3.20;2.90;;;16.70;99.90;;;;;;4938095;29;20183;-70
2021/08/02 04:38:54;;;;;;;3.90;2.80;;;16.70;99.90;;;;;;4937360;29;21045;-70
2021/08/02 04:41:20;;;;;;;4.60;3.60;;;16.60;99.90;;;;;;4937658;29;20171;-70
2021/08/02 04:43:46;;;;;;;3.53;3.23;;;16.40;99.90;;;;;;4936552;29;20642;-69
2021/08/02 04:46:11;;;;;;;6.70;3.30;;;16.20;99.90;;;;;;4937188;29;20173;-68
2021/08/02 04:48:37;;;;;;;5.67;3.63;;;16.00;99.90;;;;;;4937229;29;20190;-69
2021/08/02 04:51:02;;;;;;;6.00;3.50;;;16.00;99.90;;;;;;4937209;29;20166;-69
2021/08/02 04:53:28;;;;;;;4.60;3.23;;;16.00;99.90;;;;;;4937549;29;20248;-69
2021/08/02 04:55:53;;;;;;;4.80;3.50;;;16.00;99.90;;;;;;4940673;29;20516;-68
2021/08/02 04:58:19;;;;;;;5.33;3.60;;;16.10;99.90;;;;;;4951052;29;20516;-69
2021/08/02 05:00:46;;;;;;;6.60;3.57;;;16.00;99.90;;;;;;4951784;29;20182;-69
2021/08/02 05:03:11;;;;;;;4.83;3.10;;;16.00;99.90;;;;;;4954275;29;20204;-68
2021/08/02 05:05:37;;;;;;;6.10;3.63;;;16.00;99.90;;;;;;4933142;29;20864;-69
2021/08/02 05:08:03;;;;;;;4.50;3.27;;;16.00;99.90;;;;;;4939925;29;20182;-70
2021/08/02 05:10:28;;;;;;;3.33;3.00;;;16.00;99.90;;;;;;4940367;29;20167;-71
2021/08/02 05:12:54;;;;;;;4.03;2.93;;;16.10;99.90;;;;;;4924882;29;20897;-69
2021/08/02 05:15:19;;;;;;;3.77;3.20;;;16.30;99.90;;;;;;4931989;29;20710;-68
2021/08/02 05:17:45;;;;;;;7.23;2.97;;;16.40;99.90;;;;;;4920458;29;20525;-69
2021/08/02 05:20:11;;;;;;;4.77;3.07;;;16.50;99.90;;;;;;4938248;29;20262;-69
2021/08/02 05:22:37;;;;;;;4.77;3.27;;;16.50;99.90;;;;;;4935421;29;20203;-69
2021/08/02 05:25:03;;;;;;;4.10;2.97;;;16.50;99.90;;;;;;4927140;28;20481;-69
2021/08/02 05:27:28;;;;;;;4.13;2.70;;;16.60;99.90;;;;;;4918406;29;20202;-69
2021/08/02 05:29:54;;;;;;;4.20;2.53;;;16.60;99.90;;;;;;4918373;29;20502;-69
2021/08/02 05:32:20;;;;;;;3.47;3.17;;;16.70;99.90;;;;;;4901325;29;20211;-71
2021/08/02 05:34:45;;;;;;;3.90;2.80;;;16.80;99.90;;;;;;4919323;29;20555;-70
2021/08/02 05:37:12;;;;;;;4.80;3.17;;;16.80;99.90;;;;;;4935559;29;20859;-70
2021/08/02 05:39:38;;;;;;;18.43;6.27;;;16.90;99.90;;;;;;4936745;29;20178;-68
2021/08/02 05:42:05;;;;;;;17.45;5.70;;;16.90;99.90;;;;;;4935150;29;20442;-69
2021/08/02 05:44:31;;;;;;;308.93;42.67;;;17.00;99.90;;;;;;4936572;29;20214;-69
2021/08/02 05:46:57;;;;;;;289.77;36.97;;;17.00;99.90;;;;;;4936873;29;20410;-69
2021/08/02 05:49:22;;;;;;;117.13;20.10;;;17.00;99.90;;;;;;4936645;29;20905;-70
2021/08/02 05:51:49;;;;;;;82.83;16.10;;;16.90;99.90;;;;;;4937602;29;20171;-69
2021/08/02 05:54:15;;;;;;;37.73;8.30;;;17.00;99.90;;;;;;4936616;29;20228;-69
2021/08/02 05:56:40;;;;;;;11.73;3.83;;;17.00;99.90;;;;;;4937530;29;20506;-69
2021/08/02 05:59:06;;;;;;;4.67;3.37;;;17.00;99.90;;;;;;4937457;29;20210;-69
2021/08/02 06:01:31;;;;;;;6.40;3.57;;;17.10;99.90;;;;;;4937022;29;20518;-70
2021/08/02 06:03:57;;;;;;;13.30;4.67;;;17.10;99.90;;;;;;4935934;29;20240;-70
2021/08/02 06:06:22;;;;;;;14.67;4.73;;;17.20;99.90;;;;;;4935505;29;20272;-69
2021/08/02 06:08:48;;;;;;;17.33;6.17;;;17.30;99.90;;;;;;4935664;29;20201;-69
2021/08/02 06:11:14;;;;;;;43.40;8.10;;;17.30;99.90;;;;;;4936475;29;20472;-69
2021/08/02 06:13:39;;;;;;;18.53;4.27;;;17.30;99.90;;;;;;4936334;29;20288;-70
2021/08/02 06:16:05;;;;;;;8.63;3.13;;;17.40;99.90;;;;;;4936732;29;20253;-69
2021/08/02 06:18:30;;;;;;;9.00;3.23;;;17.40;99.90;;;;;;4937212;29;20205;-69
2021/08/02 06:20:56;;;;;;;4.30;3.33;;;17.40;99.90;;;;;;4938163;29;20616;-70
2021/08/02 06:23:22;;;;;;;8.27;4.10;;;17.30;99.90;;;;;;4936307;29;20190;-69
2021/08/02 06:25:47;;;;;;;10.73;4.20;;;17.30;99.90;;;;;;4935733;29;20253;-69
2021/08/02 06:28:13;;;;;;;6.10;4.33;;;17.20;99.90;;;;;;4928698;29;20202;-69
2021/08/02 06:30:39;;;;;;;6.70;4.37;;;17.10;99.90;;;;;;4924415;29;20179;-69
2021/08/02 06:33:04;;;;;;;10.80;4.87;;;17.20;99.90;;;;;;4928847;29;20234;-69
2021/08/02 06:35:30;;;;;;;14.00;5.30;;;17.20;99.90;;;;;;4926302;29;20194;-69
2021/08/02 06:37:55;;;;;;;16.27;5.27;;;17.20;99.90;;;;;;4925582;29;20304;-69
2021/08/02 06:40:22;;;;;;;11.13;6.00;;;17.10;99.90;;;;;;4927965;29;20214;-69
2021/08/02 06:42:47;;;;;;;7.10;5.23;;;16.90;99.90;;;;;;4917791;29;20282;-69
2021/08/02 06:45:14;;;;;;;10.13;5.83;;;17.00;99.90;;;;;;4925117;29;20553;-69
2021/08/02 06:47:40;;;;;;;13.82;6.90;;;17.10;99.90;;;;;;4923629;29;20787;-70
2021/08/02 06:50:07;;;;;;;9.17;6.57;;;17.30;99.90;;;;;;4923242;29;20258;-69
2021/08/02 06:52:32;;;;;;;13.00;6.37;;;17.40;99.90;;;;;;4919502;29;20482;-70
2021/08/02 06:54:58;;;;;;;8.90;6.43;;;17.50;99.90;;;;;;4926047;29;20423;-70
2021/08/02 06:57:26;;;;;;;11.47;8.03;;;17.60;99.90;;;;;;4917648;29;20230;-69
2021/08/02 06:59:56;;;;;;;10.13;6.80;;;17.60;99.90;;;;;;4922504;29;20229;-69
2021/08/02 07:02:21;;;;;;;10.10;7.40;;;17.60;99.90;;;;;;4915853;29;20465;-70
2021/08/02 07:04:47;;;;;;;9.60;7.63;;;17.30;99.90;;;;;;4915695;29;20956;-68
2021/08/02 07:07:13;;;;;;;8.60;6.37;;;17.30;99.90;;;;;;4939494;29;20181;-68
2021/08/02 07:09:38;;;;;;;11.57;7.73;;;17.40;99.90;;;;;;4942934;29;20515;-70
2021/08/02 07:12:04;;;;;;;13.00;9.23;;;17.50;99.90;;;;;;4942471;29;20174;-70
2021/08/02 07:14:30;;;;;;;11.53;8.10;;;17.50;99.90;;;;;;4939833;29;20202;-70
2021/08/02 07:16:56;;;;;;;7.93;5.30;;;17.60;99.90;;;;;;4941699;29;20446;-70
2021/08/02 07:19:21;;;;;;;8.00;4.87;;;17.40;99.90;;;;;;4924433;29;20185;-70
2021/08/02 07:21:47;;;;;;;7.27;4.90;;;17.10;99.90;;;;;;4934789;29;20178;-69
2021/08/02 07:24:13;;;;;;;6.50;5.23;;;16.90;99.90;;;;;;4933201;29;20265;-70
2021/08/02 07:26:40;;;;;;;6.33;5.73;;;17.00;99.90;;;;;;4926420;29;20489;-69
2021/08/02 07:29:05;;;;;;;8.67;5.00;;;17.10;99.90;;;;;;4927994;29;20183;-71
2021/08/02 07:31:31;;;;;;;7.50;5.53;;;17.20;99.90;;;;;;4931822;29;20426;-69
2021/08/02 07:33:57;;;;;;;6.40;4.30;;;17.30;99.90;;;;;;4929101;29;20210;-69
2021/08/02 07:36:22;;;;;;;7.33;4.23;;;17.10;99.90;;;;;;4913975;29;20211;-70
2021/08/02 07:38:48;;;;;;;5.10;3.67;;;17.00;99.90;;;;;;4923153;29;20203;-70
2021/08/02 07:41:14;;;;;;;7.27;4.63;;;17.00;99.90;;;;;;4931268;29;20186;-70
2021/08/02 07:43:40;;;;;;;11.23;6.33;;;17.10;99.90;;;;;;4931500;29;20297;-70
2021/08/02 07:46:06;;;;;;;7.03;4.90;;;17.10;99.90;;;;;;4932687;29;20454;-70
2021/08/02 07:48:31;;;;;;;7.73;5.70;;;17.20;99.90;;;;;;4922665;29;20203;-69
2021/08/02 07:50:57;;;;;;;9.97;5.73;;;17.20;99.90;;;;;;4922341;29;20419;-69
2021/08/02 07:53:23;;;;;;;10.30;7.27;;;17.20;99.90;;;;;;4920846;29;20227;-70
2021/08/02 07:55:49;;;;;;;8.93;6.30;;;17.30;99.90;;;;;;4904093;29;20602;-70
2021/08/02 07:58:15;;;;;;;11.77;6.70;;;17.40;99.90;;;;;;4930197;29;20811;-70
2021/08/02 08:00:41;;;;;;;9.17;6.60;;;17.50;99.90;;;;;;4935812;29;20182;-69
2021/08/02 08:03:12;;;;;;;6.83;5.77;;;17.60;99.90;;;;;;4936919;29;20242;-71
2021/08/02 08:05:38;;;;;;;11.43;6.50;;;17.50;99.90;;;;;;4932229;29;20202;-69
2021/08/02 08:08:04;;;;;;;12.90;6.60;;;17.70;99.90;;;;;;4919479;29;20505;-70
2021/08/02 08:10:29;;;;;;;8.97;5.87;;;17.70;99.90;;;;;;4929936;29;20615;-69
2021/08/02 08:12:55;;;;;;;9.63;6.40;;;17.80;99.90;;;;;;4936447;29;21008;-70
2021/08/02 08:15:23;;;;;;;6.07;5.03;;;18.00;99.90;;;;;;4933957;29;20201;-72
2021/08/02 08:17:49;;;;;;;6.47;5.40;;;18.20;99.90;;;;;;4939586;29;20431;-70
2021/08/02 08:20:19;;;;;;;9.17;7.70;;;18.40;99.90;;;;;;4939685;29;20433;-71
2021/08/02 08:22:45;;;;;;;11.00;7.33;;;18.40;99.90;;;;;;4941255;29;20449;-70
2021/08/02 08:25:12;;;;;;;11.07;7.10;;;18.60;99.90;;;;;;4935675;29;20461;-70
2021/08/02 08:27:38;;;;;;;12.03;6.80;;;18.70;99.90;;;;;;4918322;29;20330;-70
2021/08/02 08:30:05;;;;;;;10.50;6.87;;;18.90;99.90;;;;;;4934937;29;20537;-70
2021/08/02 08:32:31;;;;;;;7.40;6.23;;;18.80;99.90;;;;;;4935287;29;20198;-70
2021/08/02 08:34:56;;;;;;;9.33;6.80;;;18.60;99.90;;;;;;4935627;29;20410;-70
2021/08/02 08:37:22;;;;;;;9.20;5.97;;;18.40;99.90;;;;;;4936776;29;20540;-70
2021/08/02 08:39:48;;;;;;;8.90;6.80;;;18.40;99.90;;;;;;4939690;29;20829;-71
2021/08/02 08:42:14;;;;;;;7.07;6.37;;;18.30;99.90;;;;;;4943453;29;20242;-71
2021/08/02 08:44:41;;;;;;;9.30;6.00;;;17.90;99.90;;;;;;4950721;29;20210;-71
2021/08/02 08:47:06;;;;;;;6.23;5.27;;;18.00;99.90;;;;;;4941707;29;20422;-71
2021/08/02 08:49:32;;;;;;;5.33;4.50;;;17.90;99.90;;;;;;4937612;29;20423;-71
2021/08/02 08:51:58;;;;;;;8.87;4.50;;;18.00;99.90;;;;;;4936056;29;20186;-70
2021/08/02 08:54:24;;;;;;;6.97;3.93;;;18.00;99.90;;;;;;4935100;29;20490;-70
2021/08/02 08:56:51;;;;;;;6.10;4.13;;;18.00;99.90;;;;;;4935229;29;20563;-71
2021/08/02 08:59:16;;;;;;;5.23;4.40;;;18.00;99.90;;;;;;4934944;29;20184;-70
2021/08/02 09:01:42;;;;;;;6.73;3.40;;;17.90;99.90;;;;;;4934103;29;20430;-70
2021/08/02 09:04:08;;;;;;;7.10;4.10;;;17.80;99.90;;;;;;4927878;29;20210;-71
2021/08/02 09:06:47;;;;;;;6.03;4.50;;;18.00;99.90;;;;;;4933733;29;20264;-70
2021/08/02 09:09:34;;;;;;;6.80;3.40;;;18.10;99.90;;;;;;4933139;29;20186;-71
2021/08/02 09:12:13;;;;;;;7.87;4.50;;;18.30;99.90;;;;;;4916550;29;20422;-71
2021/08/02 09:14:54;;;;;;;4.83;3.50;;;18.50;99.90;;;;;;4932972;29;20457;-71
2021/08/02 09:17:33;;;;;;;6.00;3.57;;;18.60;99.90;;;;;;4932387;29;20437;-70
2021/08/02 09:20:17;;;;;;;9.83;3.40;;;18.50;99.90;;;;;;4933632;29;20521;-70
2021/08/02 09:22:43;;;;;;;4.00;3.60;;;18.50;99.90;;;;;;4933654;29;21140;-70
2021/08/02 09:25:19;;;;;;;6.47;4.13;;;18.30;99.90;;;;;;4932562;29;20510;-70
2021/08/02 09:27:50;;;;;;;3.53;3.23;;;18.30;99.90;;;;;;4933772;29;20174;-70
2021/08/02 09:30:20;;;;;;;3.50;3.20;;;18.40;99.90;;;;;;4933579;29;20938;-70
2021/08/02 09:32:57;;;;;;;6.10;3.53;;;18.50;99.90;;;;;;4932305;29;20456;-70
2021/08/02 09:35:28;;;;;;;5.93;2.93;;;18.70;99.90;;;;;;4915418;29;20449;-69
2021/08/02 09:38:00;;;;;;;2.90;2.60;;;18.80;99.90;;;;;;4915870;29;20883;-70
2021/08/02 09:40:26;;;;;;;3.33;3.00;;;18.70;99.90;;;;;;4933351;29;20433;-71
2021/08/02 09:42:57;;;;;;;3.87;3.47;;;18.50;99.90;;;;;;4933470;29;20460;-69
2021/08/02 09:45:25;;;;;;;6.10;3.30;;;18.60;99.90;;;;;;4933092;29;20469;-69
2021/08/02 09:47:51;;;;;;;3.60;3.30;;;18.70;99.90;;;;;;4932380;29;20457;-70
2021/08/02 09:50:30;;;;;;;5.70;4.23;;;18.60;99.90;;;;;;4932854;29;20441;-70
2021/08/02 09:52:57;;;;;;;4.37;3.97;;;18.40;99.90;;;;;;4932373;29;20814;-70
2021/08/02 09:55:23;;;;;;;5.63;4.83;;;18.40;99.90;;;;;;4932176;29;20433;-71
2021/08/02 09:57:52;;;;;;;7.10;4.30;;;18.30;99.90;;;;;;4915804;29;20517;-72
2021/08/02 10:00:19;;;;;;;6.97;4.10;;;18.40;99.90;;;;;;4932773;29;20991;-70
2021/08/02 10:02:49;;;;;;;3.70;3.30;;;18.20;99.90;;;;;;4932994;29;20478;-70
2021/08/02 10:05:16;;;;;;;5.67;4.47;;;17.90;99.90;;;;;;4914598;29;20476;-71
2021/08/02 10:07:44;;;;;;;4.30;3.80;;;18.00;99.90;;;;;;4932669;29;20486;-71
2021/08/02 10:10:11;;;;;;;4.27;3.50;;;18.00;99.90;;;;;;4932964;29;20461;-70
2021/08/02 10:12:41;;;;;;;7.30;6.03;;;18.20;99.90;;;;;;4931413;29;20469;-71
2021/08/02 10:15:12;;;;;;;7.30;4.27;;;18.30;99.90;;;;;;4932294;29;20464;-71
2021/08/02 10:17:38;;;;;;;4.30;3.50;;;18.40;99.90;;;;;;4932952;29;20788;-71
2021/08/02 10:20:14;;;;;;;4.17;3.77;;;18.40;99.90;;;;;;4933055;29;20832;-70
2021/08/02 10:22:46;;;;;;;5.00;3.63;;;18.40;99.90;;;;;;4931455;29;20420;-69
2021/08/02 10:25:12;;;;;;;4.23;3.00;;;18.50;99.90;;;;;;4914931;29;20473;-70
2021/08/02 10:27:39;;;;;;;4.53;3.73;;;18.50;99.90;;;;;;4931944;29;20453;-70
2021/08/02 10:30:19;;;;;;;4.43;3.40;;;18.40;99.90;;;;;;4932514;29;20289;-70
2021/08/02 10:32:51;;;;;;;3.83;3.20;;;18.40;99.90;;;;;;4932249;29;20827;-70
2021/08/02 10:35:17;;;;;;;6.90;3.63;;;18.30;99.90;;;;;;4930959;29;20837;-71
2021/08/02 10:37:43;;;;;;;3.83;3.53;;;18.40;99.90;;;;;;4932615;29;20459;-70
2021/08/02 10:40:11;;;;;;;4.63;4.10;;;18.60;99.90;;;;;;4915883;29;20461;-71
2021/08/02 10:42:51;;;;;;;5.10;3.90;;;18.80;99.90;;;;;;4936035;29;20635;-70
2021/08/02 10:45:29;;;;;;;9.00;4.50;;;18.80;99.90;;;;;;4935305;29;21044;-71
2021/08/02 10:47:54;;;;;;;6.13;3.90;;;19.10;99.90;;;;;;4913864;29;20550;-70
2021/08/02 10:50:33;;;;;;;4.40;4.03;;;19.40;99.70;;;;;;4923760;29;20525;-70
2021/08/02 10:53:14;;;;;;;6.03;4.30;;;19.60;99.30;;;;;;4934178;29;20229;-67
2021/08/02 10:55:49;;;;;;;9.43;5.00;;;19.80;98.60;;;;;;4917393;29;20498;-70
2021/08/02 10:58:44;;;;;;;7.03;4.80;;;19.90;98.40;;;;;;4925430;29;20429;-69
2021/08/02 11:01:14;;;;;;;13.93;5.70;;;20.00;98.20;;;;;;4934304;29;20441;-69
2021/08/02 11:03:41;;;;;;;6.43;5.20;;;19.80;97.10;;;;;;4935001;29;20445;-69
2021/08/02 11:06:17;;;;;;;7.17;5.90;;;19.90;97.30;;;;;;4920263;29;20441;-71
2021/08/02 11:08:45;;;;;;;7.40;5.43;;;20.00;97.40;;;;;;4933960;29;20436;-69
2021/08/02 11:11:17;;;;;;;7.03;6.37;;;20.10;97.20;;;;;;4934325;29;20441;-70
2021/08/02 11:13:43;;;;;;;7.67;6.70;;;20.10;97.40;;;;;;4934474;29;20548;-70
2021/08/02 11:16:09;;;;;;;7.20;6.27;;;20.30;97.20;;;;;;4933769;29;20855;-70
2021/08/02 11:18:34;;;;;;;9.35;6.30;;;20.30;97.20;;;;;;4922876;29;20494;-70
2021/08/02 11:21:00;;;;;;;8.30;6.00;;;20.40;97.20;;;;;;4915266;29;20329;-69
2021/08/02 11:23:36;;;;;;;5.40;4.90;;;20.30;97.20;;;;;;4917017;29;20301;-69
2021/08/02 11:26:07;;;;;;;5.70;4.73;;;20.10;96.80;;;;;;4934839;29;20185;-71
2021/08/02 11:28:48;;;;;;;6.57;4.60;;;19.80;97.40;;;;;;4920579;29;20434;-71
2021/08/02 11:31:14;;;;;;;5.17;4.40;;;19.90;97.50;;;;;;4931369;29;20534;-71
2021/08/02 11:33:42;;;;;;;11.20;4.77;;;19.90;97.60;;;;;;4934592;29;21148;-70
2021/08/02 11:36:16;;;;;;;9.27;4.50;;;20.00;97.20;;;;;;4935327;29;20418;-70
2021/08/02 11:38:42;;;;;;;14.20;5.20;;;19.80;97.40;;;;;;4935457;29;21279;-70
2021/08/02 11:41:11;;;;;;;32.00;6.63;;;19.90;97.50;;;;;;4917606;29;20444;-70
2021/08/02 11:43:43;;;;;;;79.37;11.50;;;19.80;97.30;;;;;;4934130;29;20435;-71
2021/08/02 11:46:10;;;;;;;37.40;7.90;;;19.80;97.70;;;;;;4927175;29;20425;-70
2021/08/02 11:48:36;;;;;;;10.93;4.80;;;20.00;97.50;;;;;;4938316;29;20493;-70
2021/08/02 11:51:02;;;;;;;4.50;4.07;;;20.20;97.40;;;;;;4939103;29;20521;-71
2021/08/02 11:53:35;;;;;;;7.30;4.60;;;20.40;97.30;;;;;;4942047;29;20210;-71
2021/08/02 11:56:01;;;;;;;10.33;6.20;;;20.50;97.30;;;;;;4919402;29;20648;-69
2021/08/02 11:58:38;;;;;;;5.80;5.30;;;20.70;97.10;;;;;;4936543;29;20798;-71
2021/08/02 12:01:04;;;;;;;5.87;5.37;;;20.70;97.00;;;;;;4937399;29;20814;-70
2021/08/02 12:03:29;;;;;;;6.33;5.00;;;20.90;96.90;;;;;;4933825;29;20449;-70
2021/08/02 12:06:08;;;;;;;5.10;4.03;;;21.00;96.60;;;;;;4932852;29;20796;-70
2021/08/02 12:08:35;;;;;;;5.27;4.77;;;21.30;96.50;;;;;;4932077;29;20194;-69
2021/08/02 12:11:03;;;;;;;6.10;3.90;;;21.40;96.00;;;;;;4914146;29;20438;-70
2021/08/02 12:13:42;;;;;;;6.43;4.20;;;21.50;95.80;;;;;;4940179;29;20474;-70
2021/08/02 12:16:09;;;;;;;5.40;4.60;;;21.70;95.40;;;;;;4947732;29;20849;-70
2021/08/02 12:18:36;;;;;;;5.23;4.73;;;21.50;94.90;;;;;;4934048;29;20516;-70
2021/08/02 12:21:14;;;;;;;4.23;3.53;;;21.40;95.40;;;;;;4938099;29;20431;-71
2021/08/02 12:23:40;;;;;;;5.97;5.03;;;21.50;95.40;;;;;;4924092;29;20524;-70
2021/08/02 12:26:20;;;;;;;10.10;4.20;;;21.40;94.90;;;;;;4930267;29;20438;-70
2021/08/02 12:28:47;;;;;;;10.80;4.43;;;21.50;95.10;;;;;;4921774;29;20808;-71
2021/08/02 12:31:20;;;;;;;5.63;4.80;;;21.60;95.10;;;;;;4924484;29;20441;-71
2021/08/02 12:33:47;;;;;;;13.07;6.10;;;21.60;94.90;;;;;;4919790;29;20442;-70
2021/08/02 12:36:14;;;;;;;9.20;5.73;;;21.80;95.10;;;;;;4928900;29;20922;-70
2021/08/02 12:38:42;;;;;;;4.83;3.87;;;21.90;95.10;;;;;;4915629;29;20434;-69
2021/08/02 12:41:08;;;;;;;4.60;3.83;;;22.00;94.70;;;;;;4934933;29;20422;-70
2021/08/02 12:43:33;;;;;;;9.60;4.80;;;22.10;94.10;;;;;;4932816;29;20541;-70
2021/08/02 12:45:59;;;;;;;9.50;5.50;;;22.20;93.90;;;;;;4933258;29;20186;-70
2021/08/02 12:48:25;;;;;;;5.47;4.33;;;22.00;94.30;;;;;;4933040;29;20212;-70